createdAt,value
2019-04-25T00:02:26.799Z,0.70
2019-04-25T00:04:57.336Z,0.63
2019-04-25T00:07:33.621Z,0.80
2019-04-25T00:10:07.019Z,0.90
2019-04-25T00:12:43.043Z,0.93
2019-04-25T00:15:13.009Z,0.77
2019-04-25T00:17:44.656Z,0.90
2019-04-25T00:20:15.290Z,0.80
2019-04-25T00:23:07.139Z,0.63
2019-04-25T00:26:05.813Z,0.87
2019-04-25T00:28:37.524Z,0.70
2019-04-25T00:31:09.133Z,0.80
2019-04-25T00:33:41.956Z,0.63
2019-04-25T00:36:15.283Z,0.60
2019-04-25T00:38:49.271Z,0.63
2019-04-25T00:41:21.372Z,0.70
2019-04-25T00:43:52.641Z,0.73
2019-04-25T00:46:23.551Z,0.80
2019-04-25T00:48:54.042Z,0.80
2019-04-25T00:51:24.475Z,0.90
2019-04-25T00:53:55.097Z,0.80
2019-04-25T00:56:25.635Z,0.90
2019-04-25T00:59:15.369Z,0.87
2019-04-25T01:02:31.515Z,0.90
2019-04-25T01:05:02.329Z,0.70
2019-04-25T01:07:34.429Z,0.97
2019-04-25T01:10:05.987Z,0.90
2019-04-25T01:12:36.779Z,0.90
2019-04-25T01:15:09.447Z,1.10
2019-04-25T01:17:41.333Z,0.60
2019-04-25T01:20:12.074Z,0.67
2019-04-25T01:22:44.048Z,0.73
2019-04-25T01:25:14.642Z,1.00
2019-04-25T01:27:46.085Z,0.87
2019-04-25T01:30:18.792Z,0.73
2019-04-25T01:32:49.246Z,0.47
2019-04-25T01:35:31.327Z,0.83
2019-04-25T01:38:26.103Z,0.80
2019-04-25T01:41:18.668Z,0.50
2019-04-25T01:43:56.907Z,0.90
2019-04-25T01:46:28.047Z,0.77
2019-04-25T01:48:59.758Z,0.83
2019-04-25T01:51:30.437Z,1.10
2019-04-25T01:54:14.562Z,0.90
2019-04-25T01:56:44.990Z,0.70
2019-04-25T01:59:15.857Z,0.93
2019-04-25T02:01:46.350Z,0.67
2019-04-25T02:04:16.800Z,0.60
2019-04-25T02:06:47.225Z,0.83
2019-04-25T02:09:17.683Z,1.13
2019-04-25T02:11:56.801Z,1.00
2019-04-25T02:14:27.370Z,0.90
2019-04-25T02:16:58.446Z,0.87
2019-04-25T02:19:29.038Z,0.90
2019-04-25T02:21:59.931Z,0.90
2019-04-25T02:24:30.395Z,0.53
2019-04-25T02:27:01.192Z,1.07
2019-04-25T02:29:33.300Z,0.73
2019-04-25T02:32:08.847Z,0.97
2019-04-25T02:34:36.161Z,0.80
2019-04-25T02:37:09.474Z,1.03
2019-04-25T02:39:39.753Z,0.60
2019-04-25T02:42:10.235Z,0.87
2019-04-25T02:44:45.158Z,0.80
2019-04-25T02:47:46.608Z,1.00
2019-04-25T02:50:35.130Z,0.90
2019-04-25T02:53:15.070Z,0.90
2019-04-25T02:55:46.085Z,1.17
2019-04-25T02:58:17.100Z,1.30
2019-04-25T03:00:57.210Z,1.07
2019-04-25T03:03:20.144Z,0.80
2019-04-25T03:05:52.290Z,0.50
2019-04-25T03:08:24.382Z,1.00
2019-04-25T03:10:54.988Z,0.87
2019-04-25T03:13:25.483Z,0.93
2019-04-25T03:15:55.978Z,1.03
2019-04-25T03:18:28.134Z,1.10
2019-04-25T03:21:10.094Z,1.20
2019-04-25T03:23:42.777Z,1.00
2019-04-25T03:26:14.152Z,1.10
2019-04-25T03:28:44.807Z,1.10
2019-04-25T03:31:21.967Z,0.83
2019-04-25T03:33:47.412Z,0.90
2019-04-25T03:36:17.902Z,1.53
2019-04-25T03:38:49.386Z,0.70
2019-04-25T03:41:19.848Z,0.77
2019-04-25T03:43:50.288Z,0.70
2019-04-25T03:46:20.775Z,1.40
2019-04-25T03:48:51.187Z,1.00
2019-04-25T03:51:21.674Z,1.30
2019-04-25T03:53:53.564Z,1.10
2019-04-25T03:56:24.908Z,1.20
2019-04-25T03:58:55.505Z,1.40
2019-04-25T04:01:28.413Z,0.90
2019-04-25T04:03:59.181Z,0.90
2019-04-25T04:06:29.663Z,0.97
2019-04-25T04:09:05.506Z,1.47
2019-04-25T04:11:36.712Z,0.73
2019-04-25T04:14:07.189Z,1.10
2019-04-25T04:16:41.191Z,1.10
2019-04-25T04:19:11.693Z,1.13
2019-04-25T04:21:53.204Z,1.40
2019-04-25T04:24:44.076Z,1.13
2019-04-25T04:27:18.155Z,1.10
2019-04-25T04:29:48.910Z,1.23
2019-04-25T04:32:20.625Z,0.97
2019-04-25T04:34:51.106Z,1.20
2019-04-25T04:37:21.562Z,1.30
2019-04-25T04:39:53.478Z,1.50
2019-04-25T04:42:27.347Z,1.50
2019-04-25T04:45:00.787Z,1.57
2019-04-25T04:47:33.241Z,1.60
2019-04-25T04:50:04.020Z,1.60
2019-04-25T04:52:36.347Z,1.60
2019-04-25T04:55:09.769Z,1.40
2019-04-25T04:57:39.521Z,1.30
2019-04-25T05:00:10.952Z,1.30
2019-04-25T05:03:14.617Z,1.40
2019-04-25T05:06:07.311Z,1.50
2019-04-25T05:08:46.552Z,1.40
2019-04-25T05:11:26.717Z,1.63
2019-04-25T05:14:04.010Z,1.60
2019-04-25T05:16:34.714Z,1.80
2019-04-25T05:19:05.223Z,1.43
2019-04-25T05:21:35.704Z,1.70
2019-04-25T05:24:06.725Z,1.70
2019-04-25T05:26:37.226Z,1.87
2019-04-25T05:29:08.086Z,1.80
2019-04-25T05:31:50.547Z,1.80
2019-04-25T05:34:25.806Z,1.53
2019-04-25T05:36:58.202Z,1.40
2019-04-25T05:39:33.396Z,1.80
2019-04-25T05:42:25.779Z,2.13
2019-04-25T05:44:59.670Z,1.50
2019-04-25T05:47:33.401Z,1.80
2019-04-25T05:50:04.200Z,1.90
2019-04-25T05:52:37.707Z,1.90
2019-04-25T05:55:10.949Z,1.73
2019-04-25T05:57:47.781Z,1.67
2019-04-25T06:00:15.110Z,1.60
2019-04-25T06:02:46.195Z,1.77
2019-04-25T06:05:21.120Z,2.17
2019-04-25T06:07:51.675Z,1.80
2019-04-25T06:10:34.286Z,1.80
2019-04-25T06:13:29.941Z,1.90
2019-04-25T06:16:05.466Z,1.97
2019-04-25T06:18:55.012Z,1.63
2019-04-25T06:21:25.699Z,1.47
2019-04-25T06:24:19.142Z,1.50
2019-04-25T06:27:01.796Z,1.33
2019-04-25T06:29:34.799Z,1.13
2019-04-25T06:32:08.517Z,1.70
2019-04-25T06:34:38.549Z,1.70
2019-04-25T06:37:09.046Z,1.53
2019-04-25T06:39:41.993Z,1.70
2019-04-25T06:42:13.828Z,1.50
2019-04-25T06:44:53.557Z,1.60
2019-04-25T06:47:44.298Z,1.40
2019-04-25T06:50:16.773Z,1.50
2019-04-25T06:52:51.591Z,1.47
2019-04-25T06:55:23.667Z,1.40
2019-04-25T06:57:54.577Z,1.40
2019-04-25T07:00:29.594Z,1.30
2019-04-25T07:03:24.896Z,2.00
2019-04-25T07:05:55.676Z,1.50
2019-04-25T07:08:29.174Z,1.67
2019-04-25T07:11:01.219Z,1.40
2019-04-25T07:13:39.836Z,2.07
2019-04-25T07:16:11.449Z,1.10
2019-04-25T07:18:53.337Z,1.50
2019-04-25T07:21:24.865Z,1.40
2019-04-25T07:24:00.115Z,1.03
2019-04-25T07:26:58.220Z,1.40
2019-04-25T07:29:56.736Z,1.20
2019-04-25T07:32:37.304Z,1.47
2019-04-25T07:35:10.816Z,1.40
2019-04-25T07:37:44.179Z,1.13
2019-04-25T07:40:17.171Z,1.37
2019-04-25T07:43:04.893Z,0.90
2019-04-25T07:45:38.865Z,1.57
2019-04-25T07:48:09.427Z,1.30
2019-04-25T07:50:40.254Z,1.33
2019-04-25T07:53:10.724Z,1.30
2019-04-25T07:55:43.191Z,1.23
2019-04-25T07:58:21.663Z,0.87
2019-04-25T08:00:51.392Z,1.37
2019-04-25T08:03:23.760Z,1.20
2019-04-25T08:05:54.316Z,1.27
2019-04-25T08:08:24.792Z,1.10
2019-04-25T08:11:01.620Z,1.20
2019-04-25T08:13:49.860Z,1.23
2019-04-25T08:16:23.321Z,1.33
2019-04-25T08:18:56.860Z,1.00
2019-04-25T08:21:34.069Z,1.20
2019-04-25T08:24:09.242Z,0.97
2019-04-25T08:26:39.771Z,0.93
2019-04-25T08:29:10.279Z,1.23
2019-04-25T08:31:44.024Z,1.20
2019-04-25T08:34:15.425Z,1.37
2019-04-25T08:36:46.722Z,1.30
2019-04-25T08:39:18.191Z,1.10
2019-04-25T08:41:51.556Z,1.10
2019-04-25T08:44:24.149Z,1.20
2019-04-25T08:46:55.131Z,1.40
2019-04-25T08:49:50.707Z,0.90
2019-04-25T08:52:21.126Z,1.00
2019-04-25T08:55:06.953Z,0.80
2019-04-25T08:58:17.555Z,1.20
2019-04-25T09:01:11.363Z,1.03
2019-04-25T09:03:48.703Z,0.80
2019-04-25T09:06:21.502Z,1.13
2019-04-25T09:08:53.934Z,1.00
2019-04-25T09:11:32.403Z,0.93
2019-04-25T09:14:04.350Z,0.93
2019-04-25T09:16:36.596Z,0.93
2019-04-25T09:19:10.279Z,1.10
2019-04-25T09:21:46.092Z,1.10
2019-04-25T09:24:20.159Z,1.20
2019-04-25T09:26:50.679Z,1.20
2019-04-25T09:29:26.982Z,0.90
2019-04-25T09:31:58.754Z,1.20
2019-04-25T09:34:36.889Z,1.20
2019-04-25T09:37:04.249Z,1.10
2019-04-25T09:39:46.353Z,0.90
2019-04-25T09:42:17.156Z,0.90
2019-04-25T09:45:15.908Z,1.13
2019-04-25T09:47:47.958Z,1.07
2019-04-25T09:50:45.440Z,1.10
2019-04-25T09:53:24.330Z,0.83
2019-04-25T09:56:33.796Z,1.10
2019-04-25T09:59:27.212Z,1.00
2019-04-25T10:01:56.656Z,0.97
2019-04-25T10:04:35.619Z,1.10
2019-04-25T10:07:06.394Z,1.17
2019-04-25T10:09:38.446Z,0.93
2019-04-25T10:12:17.968Z,1.10
2019-04-25T10:15:25.964Z,0.90
2019-04-25T10:17:56.698Z,1.50
2019-04-25T10:20:30.302Z,1.47
2019-04-25T10:23:00.880Z,0.87
2019-04-25T10:25:43.841Z,1.10
2019-04-25T10:28:16.478Z,0.97
2019-04-25T10:30:53.097Z,1.00
2019-04-25T10:33:28.017Z,0.90
2019-04-25T10:36:01.022Z,1.00
2019-04-25T10:39:06.698Z,1.10
2019-04-25T10:41:28.889Z,0.80
2019-04-25T10:44:00.711Z,1.00
2019-04-25T10:46:35.716Z,0.80
2019-04-25T10:49:06.190Z,0.80
2019-04-25T10:51:40.794Z,1.07
2019-04-25T10:54:11.745Z,0.93
2019-04-25T10:56:42.303Z,1.13
2019-04-25T10:59:15.897Z,0.83
2019-04-25T11:01:47.293Z,0.97
2019-04-25T11:04:30.084Z,1.10
2019-04-25T11:07:00.532Z,0.90
2019-04-25T11:09:31.323Z,1.10
2019-04-25T11:12:04.079Z,1.00
2019-04-25T11:14:34.777Z,1.17
2019-04-25T11:17:06.795Z,1.00
2019-04-25T11:19:40.082Z,1.10
2019-04-25T11:22:17.192Z,1.20
2019-04-25T11:24:50.650Z,1.07
2019-04-25T11:27:21.830Z,1.40
2019-04-25T11:30:08.443Z,1.07
2019-04-25T11:32:33.930Z,1.10
2019-04-25T11:35:05.097Z,1.30
2019-04-25T11:37:36.169Z,0.90
2019-04-25T11:40:25.951Z,1.43
2019-04-25T11:42:56.599Z,1.30
2019-04-25T11:45:27.108Z,1.37
2019-04-25T11:47:57.682Z,1.30
2019-04-25T11:50:31.214Z,1.70
2019-04-25T11:53:24.744Z,1.07
2019-04-25T11:55:56.765Z,1.30
2019-04-25T11:58:45.686Z,1.17
2019-04-25T12:01:17.568Z,1.10
2019-04-25T12:03:56.468Z,0.93
2019-04-25T12:06:27.166Z,1.00
2019-04-25T12:09:04.109Z,1.23
2019-04-25T12:11:43.534Z,1.03
2019-04-25T12:14:07.364Z,1.00
2019-04-25T12:16:38.268Z,1.17
2019-04-25T12:19:17.005Z,1.00
2019-04-25T12:21:48.184Z,1.13
2019-04-25T12:24:31.290Z,1.10
2019-04-25T12:27:04.310Z,1.50
2019-04-25T12:29:34.955Z,1.00
2019-04-25T12:32:07.085Z,1.27
2019-04-25T12:34:40.114Z,1.00
2019-04-25T12:37:17.803Z,1.07
2019-04-25T12:39:48.859Z,1.27
2019-04-25T12:42:19.917Z,1.13
2019-04-25T12:45:05.644Z,1.10
2019-04-25T12:47:48.605Z,1.20
2019-04-25T12:50:23.098Z,1.10
2019-04-25T12:52:58.103Z,1.40
2019-04-25T12:55:31.100Z,1.30
2019-04-25T12:58:05.962Z,1.37
2019-04-25T13:00:51.185Z,1.60
2019-04-25T13:03:24.155Z,1.30
2019-04-25T13:05:54.805Z,1.27
2019-04-25T13:08:27.171Z,1.63
2019-04-25T13:11:07.539Z,1.00
2019-04-25T13:13:29.744Z,1.60
2019-04-25T13:16:05.422Z,1.40
2019-04-25T13:18:35.560Z,1.13
2019-04-25T13:21:11.159Z,1.00
2019-04-25T13:23:41.605Z,1.23
2019-04-25T13:26:12.521Z,1.40
2019-04-25T13:29:12.250Z,1.43
2019-04-25T13:32:16.946Z,1.20
2019-04-25T13:34:58.751Z,1.40
2019-04-25T13:37:29.396Z,0.93
2019-04-25T13:40:00.559Z,1.10
2019-04-25T13:42:33.356Z,1.23
2019-04-25T13:45:05.162Z,1.20
2019-04-25T13:47:37.775Z,1.30
2019-04-25T13:50:14.575Z,1.40
2019-04-25T13:52:43.844Z,1.03
2019-04-25T13:55:14.730Z,1.30
2019-04-25T13:57:51.386Z,1.23
2019-04-25T14:00:31.385Z,1.47
2019-04-25T14:03:01.949Z,1.30
2019-04-25T14:05:53.982Z,1.40
2019-04-25T14:08:27.260Z,1.60
2019-04-25T14:10:59.097Z,1.23
2019-04-25T14:13:32.730Z,1.63
2019-04-25T14:16:27.024Z,1.40
2019-04-25T14:19:19.102Z,1.60
2019-04-25T14:21:56.856Z,1.30
2019-04-25T14:24:30.527Z,1.40
2019-04-25T14:27:01.084Z,1.50
2019-04-25T14:29:33.171Z,1.80
2019-04-25T14:32:05.887Z,1.23
2019-04-25T14:34:36.362Z,1.57
2019-04-25T14:37:09.092Z,1.40
2019-04-25T14:39:40.693Z,1.50
2019-04-25T14:42:37.231Z,1.50
2019-04-25T14:45:14.313Z,1.77
2019-04-25T14:47:48.202Z,2.10
2019-04-25T14:50:20.339Z,1.60
2019-04-25T14:52:50.807Z,1.53
2019-04-25T14:55:43.042Z,1.90
2019-04-25T14:58:16.705Z,1.50
2019-04-25T15:00:54.104Z,1.70
2019-04-25T15:03:27.637Z,1.60
2019-04-25T15:06:01.127Z,1.50
2019-04-25T15:08:32.718Z,1.47
2019-04-25T15:11:05.720Z,1.57
2019-04-25T15:13:39.184Z,1.77
2019-04-25T15:16:10.276Z,1.40
2019-04-25T15:18:46.976Z,1.90
2019-04-25T15:21:18.621Z,1.90
2019-04-25T15:23:59.551Z,1.83
2019-04-25T15:26:21.548Z,10.83
2019-04-25T15:28:58.113Z,2.67
2019-04-25T15:31:30.109Z,2.00
2019-04-25T15:34:08.305Z,2.00
2019-04-25T15:36:45.003Z,1.83
2019-04-25T15:39:35.283Z,1.80
2019-04-25T15:42:32.102Z,2.67
2019-04-25T15:45:22.250Z,2.17
2019-04-25T15:47:57.354Z,1.87
2019-04-25T15:50:30.235Z,1.90
2019-04-25T15:53:00.947Z,1.70
2019-04-25T15:55:32.087Z,2.00
2019-04-25T15:58:02.845Z,1.93
2019-04-25T16:00:49.779Z,1.73
2019-04-25T16:03:22.255Z,1.80
2019-04-25T16:05:56.234Z,1.90
2019-04-25T16:08:31.262Z,1.70
2019-04-25T16:11:05.151Z,1.67
2019-04-25T16:13:38.622Z,2.10
2019-04-25T16:16:09.140Z,1.87
2019-04-25T16:18:41.188Z,1.73
2019-04-25T16:21:11.849Z,1.43
2019-04-25T16:23:45.488Z,1.40
2019-04-25T16:26:16.321Z,1.30
2019-04-25T16:28:47.280Z,1.30
2019-04-25T16:31:22.918Z,1.63
2019-04-25T16:34:00.284Z,1.60
2019-04-25T16:36:32.588Z,1.50
2019-04-25T16:39:08.191Z,1.70
2019-04-25T16:41:42.597Z,1.40
2019-04-25T16:44:18.641Z,1.30
2019-04-25T16:46:49.200Z,1.40
2019-04-25T16:49:24.747Z,1.17
2019-04-25T16:51:55.213Z,1.50
2019-04-25T16:54:29.282Z,1.90
2019-04-25T16:56:59.568Z,1.50
2019-04-25T16:59:30.048Z,1.50
2019-04-25T17:02:04.131Z,1.90
2019-04-25T17:04:35.410Z,1.70
2019-04-25T17:07:09.342Z,1.93
2019-04-25T17:09:42.837Z,1.80
2019-04-25T17:12:14.359Z,1.97
2019-04-25T17:15:04.252Z,2.37
2019-04-25T17:17:48.755Z,4.93
2019-04-25T17:20:30.766Z,3.43
2019-04-25T17:23:10.650Z,3.40
2019-04-25T17:25:38.302Z,2.40
2019-04-25T17:28:13.226Z,1.97
2019-04-25T17:30:45.895Z,2.20
2019-04-25T17:33:24.455Z,2.27
2019-04-25T17:36:13.793Z,2.50
2019-04-25T17:38:55.493Z,1.90
2019-04-25T17:41:26.106Z,2.13
2019-04-25T17:44:04.870Z,2.83
2019-04-25T17:46:42.876Z,2.67
2019-04-25T17:49:16.703Z,2.40
2019-04-25T17:52:02.133Z,5.17
2019-04-25T17:54:32.952Z,21.30
2019-04-25T17:57:06.922Z,57.80
2019-04-25T17:59:37.675Z,20.80
2019-04-25T18:02:13.232Z,2.70
2019-04-25T18:04:51.218Z,2.70
2019-04-25T18:07:39.985Z,2.67
2019-04-25T18:10:12.868Z,2.60
2019-04-25T18:12:44.334Z,2.37
2019-04-25T18:15:27.777Z,2.20
2019-04-25T18:18:05.976Z,2.57
2019-04-25T18:20:43.064Z,2.53
2019-04-25T18:23:24.722Z,2.13
2019-04-25T18:26:27.860Z,2.80
2019-04-25T18:29:36.045Z,2.63
2019-04-25T18:31:44.268Z,2.70
2019-04-25T18:34:37.465Z,2.73
2019-04-25T18:37:33.842Z,2.33
2019-04-25T18:40:36.621Z,2.50
2019-04-25T18:43:18.798Z,2.63
2019-04-25T18:45:56.487Z,2.40
2019-04-25T18:48:31.364Z,3.23
2019-04-25T18:51:12.294Z,2.60
2019-04-25T18:54:24.192Z,2.97
2019-04-25T18:57:11.669Z,2.67
2019-04-25T18:59:48.347Z,2.97
2019-04-25T19:02:56.089Z,2.43
2019-04-25T19:05:51.554Z,2.87
2019-04-25T19:08:30.456Z,2.57
2019-04-25T19:11:10.044Z,3.00
2019-04-25T19:13:49.240Z,2.50
2019-04-25T19:16:22.204Z,3.33
2019-04-25T19:19:17.102Z,2.97
2019-04-25T19:21:53.103Z,2.70
2019-04-25T19:24:23.740Z,2.70
2019-04-25T19:26:54.429Z,2.93
2019-04-25T19:29:25.079Z,3.30
2019-04-25T19:32:10.437Z,3.07
2019-04-25T19:34:42.589Z,2.87
2019-04-25T19:37:16.248Z,3.30
2019-04-25T19:39:57.851Z,2.90
2019-04-25T19:42:51.660Z,2.77
2019-04-25T19:45:23.334Z,3.00
2019-04-25T19:47:55.369Z,3.87
2019-04-25T19:50:31.389Z,3.37
2019-04-25T19:53:10.156Z,4.37
2019-04-25T19:55:43.531Z,4.33
2019-04-25T19:58:14.343Z,3.70
2019-04-25T20:00:48.647Z,3.97
2019-04-25T20:03:49.612Z,3.57
2019-04-25T20:06:45.434Z,3.53
2019-04-25T20:09:46.951Z,3.20
2019-04-25T20:12:19.702Z,3.93
2019-04-25T20:14:51.290Z,4.10
2019-04-25T20:17:23.207Z,3.50
2019-04-25T20:19:56.265Z,3.80
2019-04-25T20:22:33.078Z,3.60
2019-04-25T20:25:08.577Z,3.97
2019-04-25T20:27:42.945Z,3.43
2019-04-25T20:30:15.072Z,3.27
2019-04-25T20:32:54.109Z,4.17
2019-04-25T20:35:29.080Z,3.67
2019-04-25T20:38:01.748Z,3.93
2019-04-25T20:40:43.590Z,4.50
2019-04-25T20:43:14.632Z,3.77
2019-04-25T20:45:52.421Z,3.30
2019-04-25T20:48:25.266Z,4.13
2019-04-25T20:50:57.650Z,3.90
2019-04-25T20:53:30.100Z,4.10
2019-04-25T20:56:03.100Z,3.73
2019-04-25T20:58:34.851Z,3.53
2019-04-25T21:01:09.253Z,3.60
2019-04-25T21:03:43.782Z,3.83
2019-04-25T21:06:35.191Z,3.67
2019-04-25T21:09:07.031Z,3.67
2019-04-25T21:11:39.144Z,3.70
2019-04-25T21:14:49.243Z,4.10
2019-04-25T21:17:38.191Z,3.90
2019-04-25T21:20:09.361Z,4.13
2019-04-25T21:22:40.012Z,4.17
2019-04-25T21:25:15.157Z,3.20
2019-04-25T21:27:47.418Z,4.70
2019-04-25T21:30:17.868Z,3.90
2019-04-25T21:32:53.674Z,3.80
2019-04-25T21:35:29.911Z,3.77
2019-04-25T21:38:02.193Z,3.80
2019-04-25T21:40:55.996Z,3.90
2019-04-25T21:43:31.764Z,3.80
2019-04-25T21:46:06.883Z,3.43
2019-04-25T21:48:38.102Z,3.80
2019-04-25T21:51:26.351Z,3.83
2019-04-25T21:53:59.278Z,3.40
2019-04-25T21:56:37.371Z,3.20
2019-04-25T21:59:10.293Z,3.53
2019-04-25T22:01:44.356Z,2.70
2019-04-25T22:04:18.107Z,3.50
2019-04-25T22:06:48.841Z,3.20
2019-04-25T22:09:28.260Z,3.10
2019-04-25T22:11:59.367Z,3.30
2019-04-25T22:14:32.515Z,3.00
2019-04-25T22:17:03.907Z,2.93
2019-04-25T22:19:35.180Z,2.47
2019-04-25T22:22:06.792Z,3.57
2019-04-25T22:24:38.418Z,2.73
2019-04-25T22:27:13.637Z,2.90
2019-04-25T22:29:48.529Z,3.40
2019-04-25T22:32:34.835Z,2.60
2019-04-25T22:35:24.304Z,3.43
2019-04-25T22:37:56.113Z,3.27
2019-04-25T22:40:29.737Z,2.93
2019-04-25T22:43:12.608Z,3.23
2019-04-25T22:45:50.209Z,2.70
2019-04-25T22:48:26.324Z,2.70
2019-04-25T22:51:00.486Z,3.00
2019-04-25T22:53:36.443Z,2.87
2019-04-25T22:56:12.169Z,2.47
2019-04-25T22:58:43.418Z,3.00
2019-04-25T23:01:25.692Z,3.10
2019-04-25T23:04:13.773Z,2.77
2019-04-25T23:06:48.719Z,2.67
2019-04-25T23:09:32.476Z,3.07
2019-04-25T23:12:09.653Z,2.90
2019-04-25T23:14:48.221Z,3.17
2019-04-25T23:17:24.431Z,3.17
2019-04-25T23:19:56.845Z,2.90
2019-04-25T23:22:27.715Z,2.90
2019-04-25T23:25:05.965Z,2.80
2019-04-25T23:28:03.629Z,2.70
2019-04-25T23:30:40.610Z,2.57
2019-04-25T23:33:11.066Z,3.17
2019-04-25T23:35:42.524Z,2.77
2019-04-25T23:38:18.053Z,2.50
2019-04-25T23:40:48.470Z,2.90
2019-04-25T23:43:19.046Z,3.53
2019-04-25T23:45:49.488Z,2.67
2019-04-25T23:48:20.151Z,2.90
2019-04-25T23:50:53.540Z,3.00
2019-04-25T23:53:23.809Z,3.10
2019-04-25T23:55:54.289Z,2.90
2019-04-25T23:58:24.795Z,2.73
